Time;durP1;ratioP1;P1;durP2;ratioP2;P2;SDS_P1;SDS_P2;PMS_P1;PMS_P2;Temp;Humidity;BMP_temperature;BMP_pressure;BME280_temperature;BME280_humidity;BME280_pressure;Samples;Min_cycle;Max_cycle;Signal;HPM_P1;HPM_P2
2022/05/28 00:00:56;;;;;;;1.20;0.43;;;12.30;67.60;;;;;;4995286;28;20023;-76
2022/05/28 00:03:23;;;;;;;0.40;0.30;;;12.30;67.70;;;;;;4993535;28;20042;-76
2022/05/28 00:05:49;;;;;;;0.45;0.30;;;12.20;67.70;;;;;;4995202;28;20118;-77
2022/05/28 00:08:16;;;;;;;0.30;0.30;;;12.20;67.80;;;;;;4945407;28;20038;-76
2022/05/28 00:10:42;;;;;;;0.50;0.30;;;12.20;67.90;;;;;;4994860;28;20481;-77
2022/05/28 00:13:08;;;;;;;0.63;0.38;;;12.20;68.00;;;;;;4977298;28;20508;-76
2022/05/28 00:15:34;;;;;;;0.68;0.40;;;12.10;68.10;;;;;;4994855;28;20030;-77
2022/05/28 00:17:59;;;;;;;1.35;0.40;;;12.10;68.20;;;;;;4994988;28;20879;-78
2022/05/28 00:20:26;;;;;;;1.58;0.40;;;12.10;68.30;;;;;;4961373;28;20066;-77
2022/05/28 00:22:51;;;;;;;1.55;0.50;;;12.10;68.40;;;;;;4994898;28;20054;-77
2022/05/28 00:25:18;;;;;;;1.17;0.40;;;12.00;68.40;;;;;;4994980;28;20033;-77
2022/05/28 00:27:44;;;;;;;0.38;0.30;;;12.10;68.60;;;;;;4978177;28;20042;-77
2022/05/28 00:30:14;;;;;;;0.93;0.30;;;12.00;68.60;;;;;;4995337;28;20121;-76
2022/05/28 00:32:41;;;;;;;0.98;0.30;;;12.00;68.70;;;;;;4994721;28;20535;-76
2022/05/28 00:35:10;;;;;;;0.93;0.40;;;12.00;68.80;;;;;;4977256;28;20041;-76
2022/05/28 00:37:36;;;;;;;0.57;0.22;;;11.90;68.80;;;;;;4977509;28;20039;-77
2022/05/28 00:40:06;;;;;;;1.58;0.30;;;11.90;68.90;;;;;;4978252;28;20046;-77
2022/05/28 00:42:31;;;;;;;1.52;0.30;;;11.80;68.90;;;;;;4994268;28;20038;-77
2022/05/28 00:44:57;;;;;;;0.30;0.30;;;11.80;69.00;;;;;;4994787;28;20042;-77
2022/05/28 00:47:24;;;;;;;1.30;0.32;;;11.80;69.10;;;;;;4960686;28;20034;-77
2022/05/28 00:49:51;;;;;;;0.85;0.30;;;11.80;69.10;;;;;;4977284;28;20038;-77
2022/05/28 00:52:18;;;;;;;0.82;0.40;;;11.80;69.20;;;;;;4993954;28;20506;-77
2022/05/28 00:54:47;;;;;;;0.70;0.30;;;11.70;69.20;;;;;;4995320;28;20165;-77
2022/05/28 00:57:14;;;;;;;0.22;0.22;;;11.70;69.30;;;;;;4994525;28;20503;-76
2022/05/28 00:59:42;;;;;;;0.55;0.25;;;11.80;69.50;;;;;;4994023;28;20557;-76
2022/05/28 01:02:41;;;;;;;1.00;0.47;;;11.80;69.60;;;;;;4976844;28;20042;-77
2022/05/28 01:05:34;;;;;;;0.82;0.40;;;11.60;69.70;;;;;;4994206;28;20878;-77
2022/05/28 01:08:11;;;;;;;0.30;0.30;;;11.70;69.80;;;;;;4993578;28;20054;-77
2022/05/28 01:10:56;;;;;;;0.50;0.30;;;11.70;69.80;;;;;;4994703;28;20050;-77
2022/05/28 01:13:31;;;;;;;0.40;0.30;;;11.60;69.80;;;;;;4979025;28;20041;-77
2022/05/28 01:16:07;;;;;;;0.55;0.30;;;11.60;69.90;;;;;;4977090;28;20043;-77
2022/05/28 01:18:40;;;;;;;0.70;0.32;;;11.60;70.00;;;;;;4961169;28;20400;-77
2022/05/28 01:21:10;;;;;;;1.30;0.45;;;11.50;70.00;;;;;;4994042;28;20041;-76
2022/05/28 01:23:51;;;;;;;0.30;0.20;;;11.50;70.00;;;;;;4976567;28;20043;-77
2022/05/28 01:26:51;;;;;;;0.63;0.40;;;11.50;70.20;;;;;;4977396;28;20038;-77
2022/05/28 01:29:18;;;;;;;0.90;0.40;;;11.50;70.20;;;;;;4963386;28;20069;-77
2022/05/28 01:31:46;;;;;;;0.35;0.20;;;11.50;70.20;;;;;;4993568;28;20382;-76
2022/05/28 01:34:15;;;;;;;0.57;0.30;;;11.40;70.20;;;;;;4959630;28;20046;-77
2022/05/28 01:36:41;;;;;;;0.38;0.38;;;11.40;70.30;;;;;;4976487;28;20031;-77
2022/05/28 01:39:07;;;;;;;1.13;0.43;;;11.40;70.30;;;;;;4975821;28;20102;-77
2022/05/28 01:41:36;;;;;;;0.40;0.30;;;11.30;70.50;;;;;;4975983;28;20030;-77
2022/05/28 01:44:03;;;;;;;0.95;0.43;;;11.40;70.60;;;;;;4976577;28;20029;-77
2022/05/28 01:46:31;;;;;;;0.30;0.20;;;11.30;70.60;;;;;;4993930;28;20080;-77
2022/05/28 01:48:58;;;;;;;1.25;0.40;;;11.30;70.70;;;;;;4975659;28;20031;-77
2022/05/28 01:51:29;;;;;;;2.30;0.30;;;11.40;70.80;;;;;;4992601;28;20042;-77
2022/05/28 01:56:43;;;;;;;0.30;0.30;;;11.30;70.80;;;;;;4993389;28;20492;-77
2022/05/28 01:59:12;;;;;;;0.77;0.33;;;11.30;70.80;;;;;;4975995;28;20069;-77
2022/05/28 02:01:39;;;;;;;0.60;0.40;;;11.40;70.80;;;;;;4994045;28;20161;-77
2022/05/28 02:04:05;;;;;;;0.40;0.35;;;11.30;70.80;;;;;;4993538;28;20049;-77
2022/05/28 02:06:33;;;;;;;1.02;0.40;;;11.40;70.80;;;;;;4995328;28;20084;-77
2022/05/28 02:08:59;;;;;;;0.65;0.40;;;11.40;71.00;;;;;;4987823;28;20043;-77
2022/05/28 02:11:28;;;;;;;0.63;0.40;;;11.30;71.10;;;;;;4975591;28;20117;-77
2022/05/28 02:14:26;;;;;;;0.55;0.30;;;11.30;71.20;;;;;;4992893;28;20108;-77
2022/05/28 02:17:24;;;;;;;0.30;0.30;;;11.30;71.30;;;;;;4975108;28;20051;-77
2022/05/28 02:20:24;;;;;;;0.60;0.20;;;11.30;71.40;;;;;;4978045;28;20050;-77
2022/05/28 02:23:12;;;;;;;0.73;0.30;;;11.30;71.50;;;;;;4978187;28;20031;-78
2022/05/28 02:25:58;;;;;;;1.85;0.32;;;11.20;71.50;;;;;;4992851;28;20034;-77
2022/05/28 02:28:25;;;;;;;0.30;0.30;;;11.30;71.60;;;;;;4975394;28;20027;-76
2022/05/28 02:30:54;;;;;;;1.55;0.20;;;11.30;71.60;;;;;;4975763;28;20036;-77
2022/05/28 02:33:21;;;;;;;0.68;0.35;;;11.30;71.70;;;;;;4975628;28;20518;-77
2022/05/28 02:35:47;;;;;;;0.20;0.20;;;11.20;71.80;;;;;;4993550;28;20027;-77
2022/05/28 02:38:14;;;;;;;1.13;0.40;;;11.20;71.90;;;;;;4993407;28;20427;-77
2022/05/28 02:40:40;;;;;;;0.93;0.30;;;11.20;71.90;;;;;;4975999;28;20049;-77
2022/05/28 02:43:07;;;;;;;0.20;0.20;;;11.20;72.00;;;;;;4959114;28;20035;-77
2022/05/28 02:45:33;;;;;;;0.30;0.30;;;11.20;72.10;;;;;;4974682;28;20045;-77
2022/05/28 02:47:59;;;;;;;0.30;0.30;;;11.20;72.20;;;;;;4992148;28;20412;-77
2022/05/28 02:50:26;;;;;;;0.38;0.30;;;11.20;72.30;;;;;;4958634;28;20066;-77
2022/05/28 02:52:53;;;;;;;0.35;0.20;;;11.20;72.40;;;;;;4974612;28;20046;-77
2022/05/28 02:55:19;;;;;;;0.13;0.13;;;11.10;72.40;;;;;;4975514;28;20053;-77
2022/05/28 02:57:45;;;;;;;0.65;0.30;;;11.20;72.50;;;;;;4992142;28;20046;-76
2022/05/28 03:00:14;;;;;;;0.32;0.22;;;11.20;72.60;;;;;;4974811;28;20052;-77
2022/05/28 03:02:41;;;;;;;0.63;0.30;;;11.10;72.60;;;;;;4974570;28;20192;-77
2022/05/28 03:05:07;;;;;;;0.80;0.20;;;11.00;72.70;;;;;;4958611;28;20031;-77
2022/05/28 03:07:33;;;;;;;0.38;0.15;;;11.10;72.90;;;;;;4975278;28;20038;-77
2022/05/28 03:09:59;;;;;;;1.17;0.40;;;11.10;72.90;;;;;;4959097;28;20046;-77
2022/05/28 03:12:24;;;;;;;1.20;0.40;;;11.10;73.00;;;;;;4991756;28;20038;-77
2022/05/28 03:14:50;;;;;;;0.52;0.30;;;11.10;73.10;;;;;;4992036;28;20030;-77
2022/05/28 03:17:16;;;;;;;1.17;0.32;;;11.00;73.10;;;;;;4982392;28;20030;-78
2022/05/28 03:19:41;;;;;;;0.55;0.30;;;11.10;73.20;;;;;;4992018;28;20093;-78
2022/05/28 03:22:07;;;;;;;1.02;0.47;;;11.10;73.30;;;;;;4974311;28;20045;-77
2022/05/28 03:24:33;;;;;;;1.08;0.30;;;11.10;73.30;;;;;;4974405;28;20045;-77
2022/05/28 03:26:59;;;;;;;0.80;0.30;;;11.10;73.30;;;;;;4973690;28;20038;-78
2022/05/28 03:29:25;;;;;;;0.73;0.30;;;11.10;73.40;;;;;;4992783;28;20092;-77
2022/05/28 03:31:52;;;;;;;0.85;0.30;;;11.00;73.30;;;;;;4995758;28;20157;-76
2022/05/28 03:34:18;;;;;;;1.75;0.35;;;11.10;73.50;;;;;;4961438;28;20424;-78
2022/05/28 03:36:43;;;;;;;0.63;0.30;;;11.10;73.60;;;;;;4976808;28;20459;-78
2022/05/28 03:39:10;;;;;;;0.80;0.35;;;11.10;73.60;;;;;;4960937;28;20084;-77
2022/05/28 03:41:36;;;;;;;0.43;0.30;;;11.10;73.70;;;;;;4995315;28;20038;-77
2022/05/28 03:44:01;;;;;;;0.20;0.20;;;11.10;73.70;;;;;;4994565;28;20034;-77
2022/05/28 03:46:31;;;;;;;0.55;0.20;;;11.10;73.80;;;;;;4995308;28;20433;-77
2022/05/28 03:49:03;;;;;;;0.20;0.20;;;11.00;73.80;;;;;;4961211;28;20035;-77
2022/05/28 03:51:30;;;;;;;1.25;0.50;;;11.10;73.90;;;;;;4977828;28;20031;-77
2022/05/28 03:53:55;;;;;;;1.65;0.38;;;11.00;73.90;;;;;;4995266;28;20536;-77
2022/05/28 03:56:22;;;;;;;1.27;0.38;;;11.00;74.00;;;;;;4976763;28;20181;-77
2022/05/28 03:58:50;;;;;;;0.55;0.20;;;11.10;74.10;;;;;;4993253;28;20177;-77
2022/05/28 04:01:17;;;;;;;0.35;0.20;;;11.00;74.00;;;;;;4994710;28;20073;-77
2022/05/28 04:03:42;;;;;;;0.38;0.25;;;11.00;74.00;;;;;;4995315;28;20037;-77
2022/05/28 04:06:10;;;;;;;0.30;0.17;;;11.00;74.10;;;;;;4961615;28;20023;-77
2022/05/28 04:08:36;;;;;;;0.52;0.20;;;11.10;74.20;;;;;;4961200;28;20114;-78
2022/05/28 04:11:02;;;;;;;1.65;0.22;;;11.00;74.20;;;;;;4995292;28;20037;-77
2022/05/28 04:13:27;;;;;;;0.20;0.20;;;11.10;74.30;;;;;;4995194;28;20030;-77
2022/05/28 04:15:53;;;;;;;0.30;0.15;;;11.10;74.30;;;;;;4976962;28;20501;-77
2022/05/28 04:18:19;;;;;;;0.82;0.20;;;11.00;74.20;;;;;;4977199;28;20035;-77
2022/05/28 04:20:45;;;;;;;0.47;0.30;;;11.20;74.30;;;;;;4994548;28;20096;-78
2022/05/28 04:23:11;;;;;;;1.23;0.30;;;11.20;74.20;;;;;;4976861;28;20030;-78
2022/05/28 04:25:37;;;;;;;0.28;0.20;;;11.20;74.30;;;;;;4977282;28;20030;-76
2022/05/28 04:28:03;;;;;;;0.20;0.20;;;11.20;74.30;;;;;;4977002;28;20031;-77
2022/05/28 04:30:34;;;;;;;0.98;0.40;;;11.20;74.30;;;;;;4993495;28;20476;-78
2022/05/28 04:33:00;;;;;;;;;;;11.20;74.30;;;;;;4978377;28;20038;-76
2022/05/28 04:35:26;;;;;;;0.63;0.22;;;11.20;74.30;;;;;;4994343;28;19960;-77
2022/05/28 04:37:51;;;;;;;0.35;0.20;;;11.30;74.20;;;;;;4977160;28;20043;-77
2022/05/28 04:40:17;;;;;;;0.80;0.32;;;11.20;74.10;;;;;;4994157;28;20138;-77
2022/05/28 04:42:43;;;;;;;0.32;0.20;;;11.30;74.20;;;;;;4993390;28;20039;-76
2022/05/28 04:45:09;;;;;;;0.85;0.30;;;11.30;74.20;;;;;;4994379;28;20484;-77
2022/05/28 04:47:35;;;;;;;0.55;0.32;;;11.30;74.20;;;;;;4976808;28;20034;-77
2022/05/28 04:50:01;;;;;;;0.77;0.20;;;11.30;74.30;;;;;;4976536;28;20050;-78
2022/05/28 04:52:26;;;;;;;0.30;0.30;;;11.30;74.30;;;;;;4961183;28;20041;-78
2022/05/28 04:54:52;;;;;;;0.80;0.20;;;11.40;74.30;;;;;;4994132;28;20488;-77
2022/05/28 04:57:18;;;;;;;0.68;0.30;;;11.40;74.30;;;;;;4976913;28;20042;-77
2022/05/28 04:59:43;;;;;;;0.20;0.20;;;11.40;74.30;;;;;;4976633;28;20074;-76
2022/05/28 05:02:10;;;;;;;0.40;0.30;;;11.40;74.20;;;;;;4977103;28;20408;-78
2022/05/28 05:04:36;;;;;;;0.43;0.35;;;11.40;74.80;;;;;;4992766;28;20468;-77
2022/05/28 05:07:01;;;;;;;1.85;0.40;;;11.50;74.30;;;;;;4976478;28;20581;-77
2022/05/28 05:09:27;;;;;;;0.70;0.28;;;11.50;74.20;;;;;;4976405;28;20092;-78
2022/05/28 05:11:53;;;;;;;0.40;0.30;;;11.60;74.10;;;;;;4976429;28;20133;-77
2022/05/28 05:14:18;;;;;;;1.63;0.40;;;11.70;74.10;;;;;;4976519;28;20089;-77
2022/05/28 05:16:44;;;;;;;0.30;0.25;;;11.70;73.90;;;;;;4976188;28;20457;-77
2022/05/28 05:19:10;;;;;;;0.28;0.22;;;11.70;73.80;;;;;;4976295;28;20531;-78
2022/05/28 05:21:36;;;;;;;0.95;0.40;;;11.80;73.80;;;;;;4960578;28;20089;-78
2022/05/28 05:24:01;;;;;;;0.40;0.30;;;11.90;73.70;;;;;;4993980;28;20068;-76
2022/05/28 05:26:27;;;;;;;0.40;0.32;;;12.00;73.60;;;;;;4976759;28;20030;-77
2022/05/28 05:28:54;;;;;;;0.50;0.30;;;12.10;73.50;;;;;;4976351;28;20035;-77
2022/05/28 05:31:20;;;;;;;0.30;0.30;;;12.20;73.30;;;;;;4976069;28;20046;-77
2022/05/28 05:33:46;;;;;;;0.88;0.30;;;12.30;73.00;;;;;;4976527;28;20050;-76
2022/05/28 05:36:11;;;;;;;0.75;0.30;;;12.40;72.80;;;;;;4996391;28;20358;-77
2022/05/28 05:38:37;;;;;;;0.73;0.30;;;12.50;72.60;;;;;;4995111;28;20038;-79
2022/05/28 05:41:03;;;;;;;1.20;0.45;;;12.50;72.50;;;;;;4962159;28;20393;-76
2022/05/28 05:43:29;;;;;;;0.65;0.35;;;12.50;72.40;;;;;;4993881;28;20034;-76
2022/05/28 05:45:56;;;;;;;2.13;0.47;;;12.60;72.40;;;;;;4960863;28;20109;-78
2022/05/28 05:48:23;;;;;;;1.20;0.40;;;12.60;72.40;;;;;;4977751;28;20039;-76
2022/05/28 05:50:49;;;;;;;1.38;0.32;;;12.50;72.40;;;;;;4994031;28;20050;-77
2022/05/28 05:53:17;;;;;;;0.75;0.20;;;12.60;72.50;;;;;;4993543;28;20058;-77
2022/05/28 05:55:43;;;;;;;0.20;0.20;;;12.70;72.50;;;;;;4960295;28;20074;-77
2022/05/28 05:58:09;;;;;;;0.40;0.25;;;12.60;72.50;;;;;;4976110;28;20038;-78
2022/05/28 06:00:35;;;;;;;0.35;0.20;;;12.60;72.50;;;;;;4959786;28;20053;-77
2022/05/28 06:03:01;;;;;;;0.30;0.30;;;12.60;72.50;;;;;;4993283;28;20392;-76
2022/05/28 06:05:26;;;;;;;1.08;0.45;;;12.60;72.50;;;;;;4975770;28;20081;-76
2022/05/28 06:07:52;;;;;;;0.35;0.20;;;12.70;72.50;;;;;;4943822;28;20504;-77
2022/05/28 06:10:18;;;;;;;1.55;0.38;;;12.60;72.40;;;;;;4975620;28;20507;-76
2022/05/28 06:12:43;;;;;;;0.60;0.30;;;12.70;72.40;;;;;;4976051;28;20046;-77
2022/05/28 06:15:10;;;;;;;0.30;0.30;;;12.80;72.30;;;;;;4993917;28;20026;-77
2022/05/28 06:17:36;;;;;;;0.45;0.25;;;12.80;72.10;;;;;;4975389;28;20034;-77
2022/05/28 06:20:06;;;;;;;0.70;0.20;;;12.90;72.00;;;;;;4976712;28;20121;-77
2022/05/28 06:22:31;;;;;;;0.98;0.47;;;12.90;71.70;;;;;;4960151;28;20113;-79
2022/05/28 06:24:57;;;;;;;0.60;0.40;;;13.00;71.60;;;;;;4959211;28;20520;-80
2022/05/28 06:27:23;;;;;;;0.90;0.32;;;13.10;71.50;;;;;;4992738;28;20428;-79
2022/05/28 06:29:49;;;;;;;0.77;0.32;;;13.00;71.20;;;;;;4983489;28;20393;-80
2022/05/28 06:32:15;;;;;;;0.30;0.30;;;12.90;71.20;;;;;;4975532;28;20034;-80
2022/05/28 06:34:40;;;;;;;0.47;0.30;;;13.10;71.20;;;;;;4991289;28;20046;-80
2022/05/28 06:37:08;;;;;;;0.57;0.20;;;13.10;71.30;;;;;;4993152;28;20485;-80
2022/05/28 06:39:35;;;;;;;0.40;0.20;;;13.00;71.20;;;;;;4992617;28;20054;-80
2022/05/28 06:42:01;;;;;;;2.13;0.40;;;13.10;71.00;;;;;;4975667;28;20118;-81
2022/05/28 06:44:27;;;;;;;0.88;0.40;;;13.20;71.00;;;;;;4974889;28;20038;-79
2022/05/28 06:46:53;;;;;;;2.33;0.35;;;13.20;70.70;;;;;;4992386;28;20080;-80
2022/05/28 06:49:19;;;;;;;0.80;0.40;;;13.20;70.70;;;;;;4974815;28;20038;-80
2022/05/28 06:51:45;;;;;;;0.95;0.30;;;13.20;70.70;;;;;;4975221;28;20041;-79
2022/05/28 06:54:11;;;;;;;0.80;0.28;;;13.30;70.80;;;;;;4975170;28;20435;-81
2022/05/28 06:56:37;;;;;;;2.60;0.55;;;13.40;70.40;;;;;;4993215;28;20034;-78
2022/05/28 06:59:02;;;;;;;0.50;0.30;;;13.70;69.90;;;;;;4974859;28;20093;-78
2022/05/28 07:01:28;;;;;;;1.10;0.43;;;13.90;69.50;;;;;;4975362;28;20511;-78
2022/05/28 07:03:54;;;;;;;0.55;0.30;;;14.10;68.90;;;;;;4991468;28;20042;-77
2022/05/28 07:06:23;;;;;;;1.13;0.40;;;14.30;68.50;;;;;;4942183;28;20117;-76
2022/05/28 07:08:49;;;;;;;0.43;0.30;;;14.40;67.90;;;;;;4974178;28;20042;-78
2022/05/28 07:11:15;;;;;;;0.77;0.40;;;14.60;67.50;;;;;;4974753;28;20035;-77
2022/05/28 07:13:41;;;;;;;1.00;0.50;;;14.80;67.30;;;;;;4975594;28;20030;-78
2022/05/28 07:16:08;;;;;;;3.72;0.60;;;15.00;66.80;;;;;;4974402;28;20039;-77
2022/05/28 07:18:35;;;;;;;0.60;0.40;;;15.10;66.40;;;;;;4992535;28;20101;-77
2022/05/28 07:21:02;;;;;;;1.15;0.50;;;15.20;66.40;;;;;;4974955;28;20495;-77
2022/05/28 07:23:29;;;;;;;2.30;0.82;;;15.30;66.20;;;;;;4992694;28;20037;-78
2022/05/28 07:26:03;;;;;;;1.83;0.55;;;15.40;65.70;;;;;;4998141;28;20536;-77
2022/05/28 07:28:30;;;;;;;1.67;0.70;;;15.60;65.60;;;;;;4995838;28;20031;-77
2022/05/28 07:31:14;;;;;;;1.63;0.60;;;15.70;65.50;;;;;;4979842;28;20109;-78
2022/05/28 07:33:43;;;;;;;0.85;0.40;;;15.90;65.10;;;;;;4975497;28;20077;-77
2022/05/28 07:36:11;;;;;;;1.33;0.50;;;16.10;65.00;;;;;;4977387;28;20030;-77
2022/05/28 07:38:38;;;;;;;0.63;0.30;;;16.30;64.90;;;;;;4993236;28;20042;-77
2022/05/28 07:41:07;;;;;;;0.40;0.28;;;16.50;64.60;;;;;;4994031;28;20026;-77
2022/05/28 07:43:35;;;;;;;1.27;0.50;;;16.70;64.50;;;;;;4974970;28;20034;-77
2022/05/28 07:46:02;;;;;;;1.10;0.30;;;16.80;64.20;;;;;;4992473;28;20031;-76
2022/05/28 07:48:28;;;;;;;2.42;0.50;;;16.80;64.00;;;;;;4993429;28;20030;-77
2022/05/28 07:50:53;;;;;;;1.00;0.43;;;16.70;64.50;;;;;;4975452;28;20445;-77
2022/05/28 07:53:19;;;;;;;5.38;0.90;;;16.50;64.80;;;;;;4990889;28;20027;-78
2022/05/28 07:55:45;;;;;;;1.35;0.60;;;16.50;64.80;;;;;;4975371;28;20465;-77
2022/05/28 07:58:15;;;;;;;1.30;0.50;;;16.40;64.70;;;;;;4991589;28;20034;-76
2022/05/28 08:00:44;;;;;;;0.75;0.52;;;16.10;65.30;;;;;;4992209;28;20049;-77
2022/05/28 08:03:11;;;;;;;1.42;0.60;;;16.00;66.30;;;;;;4992055;28;20046;-77
2022/05/28 08:05:38;;;;;;;0.63;0.43;;;15.90;66.20;;;;;;4974582;28;20511;-77
2022/05/28 08:08:10;;;;;;;0.82;0.40;;;16.10;67.20;;;;;;4991368;28;20150;-76
2022/05/28 08:10:36;;;;;;;0.45;0.32;;;16.50;66.00;;;;;;4991954;28;20113;-78
2022/05/28 08:13:04;;;;;;;0.88;0.40;;;16.90;65.30;;;;;;4973786;28;20066;-78
2022/05/28 08:15:30;;;;;;;1.45;0.45;;;17.20;64.00;;;;;;4975414;28;20480;-78
2022/05/28 08:17:56;;;;;;;0.95;0.40;;;17.00;63.90;;;;;;4995136;28;20128;-77
2022/05/28 08:23:08;;;;;;;1.67;0.60;;;17.00;63.80;;;;;;4995484;28;20465;-78
2022/05/28 08:23:09;;;;;;;2.92;0.65;;;17.00;64.10;;;;;;4981626;28;20070;-77
2022/05/28 08:25:35;;;;;;;0.82;0.47;;;17.10;63.70;;;;;;4978473;28;20081;-77
2022/05/28 08:28:01;;;;;;;1.70;0.68;;;16.90;63.60;;;;;;4995286;28;20086;-78
2022/05/28 08:30:27;;;;;;;3.13;0.60;;;16.70;64.10;;;;;;4994823;28;20065;-77
2022/05/28 08:32:52;;;;;;;2.08;0.70;;;16.50;64.90;;;;;;4978248;28;20042;-77
2022/05/28 08:35:18;;;;;;;1.75;0.60;;;16.30;64.70;;;;;;4978030;28;20086;-78
2022/05/28 08:37:44;;;;;;;0.65;0.47;;;16.10;64.90;;;;;;4977878;28;20046;-77
2022/05/28 08:40:11;;;;;;;2.10;0.60;;;16.10;65.70;;;;;;4995866;28;20089;-77
2022/05/28 08:42:38;;;;;;;0.65;0.50;;;16.20;65.70;;;;;;4977717;28;20039;-77
2022/05/28 08:45:06;;;;;;;0.63;0.43;;;16.50;65.10;;;;;;4995382;28;20057;-77
2022/05/28 08:47:38;;;;;;;2.30;0.50;;;16.70;64.40;;;;;;4976992;28;20049;-77
2022/05/28 08:50:06;;;;;;;1.33;0.60;;;17.10;63.70;;;;;;4995356;28;20439;-77
2022/05/28 08:52:43;;;;;;;2.50;0.70;;;17.50;62.80;;;;;;4995380;28;20062;-77
2022/05/28 08:55:21;;;;;;;1.33;0.60;;;17.60;61.50;;;;;;4978680;28;20041;-77
2022/05/28 08:58:00;;;;;;;0.93;0.45;;;17.40;61.80;;;;;;4993781;28;20026;-77
2022/05/28 09:00:47;;;;;;;0.70;0.50;;;17.20;62.50;;;;;;4943011;28;20039;-77
2022/05/28 09:03:22;;;;;;;0.60;0.50;;;17.20;63.10;;;;;;4995040;28;20052;-77
2022/05/28 09:06:01;;;;;;;1.52;0.40;;;17.40;62.80;;;;;;4995598;28;20046;-77
2022/05/28 09:08:36;;;;;;;1.75;0.60;;;17.80;62.50;;;;;;4977187;28;20037;-77
2022/05/28 09:11:27;;;;;;;1.08;0.40;;;18.20;61.70;;;;;;4979472;28;20035;-77
2022/05/28 09:13:53;;;;;;;2.20;0.70;;;18.30;60.90;;;;;;4994565;28;20034;-77
2022/05/28 09:16:28;;;;;;;0.77;0.50;;;18.00;60.80;;;;;;4994578;28;20045;-77
2022/05/28 09:18:59;;;;;;;1.45;0.40;;;17.60;61.60;;;;;;4979349;28;20384;-77
2022/05/28 09:21:25;;;;;;;1.40;0.43;;;17.30;62.60;;;;;;4995204;28;20081;-77
2022/05/28 09:23:57;;;;;;;0.85;0.47;;;17.20;63.40;;;;;;4993647;28;20492;-77
2022/05/28 09:26:38;;;;;;;0.63;0.47;;;17.30;63.40;;;;;;4994389;28;20122;-77
2022/05/28 09:29:25;;;;;;;0.52;0.40;;;17.40;62.80;;;;;;4996743;28;20046;-76
2022/05/28 09:32:12;;;;;;;1.40;0.40;;;17.70;62.30;;;;;;4994545;28;20141;-78
2022/05/28 09:35:09;;;;;;;0.77;0.40;;;18.00;61.70;;;;;;4994307;28;20038;-77
2022/05/28 09:37:57;;;;;;;0.93;0.43;;;18.20;61.00;;;;;;4981245;28;20039;-77
2022/05/28 09:41:02;;;;;;;1.15;0.52;;;18.00;60.50;;;;;;4994064;28;20509;-77
2022/05/28 09:43:59;;;;;;;2.58;0.70;;;17.60;61.20;;;;;;4993639;28;20022;-77
2022/05/28 09:46:41;;;;;;;2.85;0.80;;;17.20;62.40;;;;;;4979333;28;20042;-77
2022/05/28 09:49:18;;;;;;;1.38;0.52;;;17.00;62.60;;;;;;4996012;28;20054;-75
2022/05/28 09:52:08;;;;;;;2.33;0.73;;;17.10;62.90;;;;;;4981314;28;20069;-77
2022/05/28 09:54:36;;;;;;;1.67;0.52;;;17.40;62.00;;;;;;4976655;28;20074;-77
2022/05/28 09:57:10;;;;;;;0.82;0.50;;;17.60;60.90;;;;;;4993347;28;20042;-77
2022/05/28 09:59:51;;;;;;;1.27;0.60;;;17.70;60.70;;;;;;4993334;28;20042;-77
2022/05/28 10:02:24;;;;;;;2.60;0.80;;;17.50;60.80;;;;;;4995542;28;20038;-77
2022/05/28 10:04:58;;;;;;;1.23;0.52;;;17.40;60.80;;;;;;4993638;28;20073;-77
2022/05/28 10:07:35;;;;;;;3.40;0.55;;;17.30;61.20;;;;;;4977124;28;20061;-76
2022/05/28 10:10:12;;;;;;;4.00;0.80;;;17.20;61.30;;;;;;4979932;28;20053;-76
2022/05/28 10:12:37;;;;;;;2.38;0.70;;;17.50;61.20;;;;;;4993498;28;20042;-76
2022/05/28 10:15:22;;;;;;;2.22;0.60;;;17.80;60.50;;;;;;4975316;28;20370;-76
2022/05/28 10:18:03;;;;;;;1.83;0.65;;;18.00;59.80;;;;;;4992940;28;20133;-75
2022/05/28 10:20:35;;;;;;;1.42;0.73;;;17.80;59.70;;;;;;4992904;28;20492;-77
2022/05/28 10:23:05;;;;;;;1.27;0.50;;;17.60;59.90;;;;;;4975431;28;20046;-76
2022/05/28 10:25:38;;;;;;;0.50;0.43;;;17.30;60.70;;;;;;4996871;28;20104;-77
2022/05/28 10:28:09;;;;;;;0.65;0.40;;;17.30;61.00;;;;;;4996585;28;20073;-77
2022/05/28 10:30:38;;;;;;;1.55;0.70;;;17.40;60.80;;;;;;4977886;28;20042;-77
2022/05/28 10:33:12;;;;;;;1.05;0.47;;;17.50;60.40;;;;;;4961688;28;20046;-78
2022/05/28 10:35:38;;;;;;;0.77;0.50;;;17.60;60.30;;;;;;4999905;28;20034;-77
2022/05/28 10:38:14;;;;;;;1.52;0.63;;;17.90;60.00;;;;;;4995856;28;20046;-77
2022/05/28 10:40:56;;;;;;;1.70;0.77;;;18.10;59.30;;;;;;4994054;28;20054;-77
2022/05/28 10:43:33;;;;;;;0.80;0.65;;;18.30;58.50;;;;;;4996740;28;20037;-78
2022/05/28 10:46:16;;;;;;;1.02;0.50;;;18.10;58.30;;;;;;4988335;28;20034;-77
2022/05/28 10:49:04;;;;;;;1.25;0.50;;;18.00;59.00;;;;;;4988004;28;20112;-82
2022/05/28 10:51:56;;;;;;;2.70;0.52;;;18.00;58.90;;;;;;5003180;28;20035;-78
2022/05/28 10:54:55;;;;;;;2.50;0.80;;;18.10;58.60;;;;;;4999046;28;20113;-77
2022/05/28 10:57:33;;;;;;;1.08;0.47;;;18.30;58.50;;;;;;4994677;28;20069;-77
2022/05/28 11:00:07;;;;;;;0.93;0.43;;;18.30;58.40;;;;;;4996067;28;20046;-79
2022/05/28 11:02:55;;;;;;;1.13;0.40;;;18.20;58.60;;;;;;4998459;28;20038;-78
2022/05/28 11:05:45;;;;;;;1.98;0.40;;;18.10;58.70;;;;;;4983612;28;20500;-77
2022/05/28 11:08:20;;;;;;;1.03;0.37;;;18.10;58.70;;;;;;5008306;28;20045;-77
2022/05/28 11:11:16;;;;;;;0.57;0.40;;;18.10;59.00;;;;;;5007366;28;20050;-78
2022/05/28 11:14:07;;;;;;;0.70;0.45;;;18.30;58.40;;;;;;5000252;28;20162;-78
2022/05/28 11:16:56;;;;;;;3.13;0.60;;;18.30;58.00;;;;;;4985100;28;20035;-78
2022/05/28 11:19:50;;;;;;;4.00;0.80;;;18.10;57.90;;;;;;4997813;28;20228;-76
2022/05/28 11:22:35;;;;;;;1.40;0.63;;;17.70;58.40;;;;;;5000803;28;20476;-77
2022/05/28 11:25:39;;;;;;;1.30;0.70;;;17.50;59.10;;;;;;5003815;28;20481;-78
2022/05/28 11:28:37;;;;;;;0.57;0.40;;;17.30;59.20;;;;;;5005135;28;20043;-76
2022/05/28 11:31:29;;;;;;;1.08;0.63;;;17.30;59.40;;;;;;4984369;28;20050;-78
2022/05/28 11:34:04;;;;;;;2.55;0.40;;;17.40;59.00;;;;;;5001038;28;20120;-78
2022/05/28 11:36:39;;;;;;;1.55;0.70;;;17.60;58.70;;;;;;4940635;28;20031;-76
2022/05/28 11:39:13;;;;;;;1.02;0.50;;;17.80;58.00;;;;;;4954083;28;20039;-77
2022/05/28 11:42:04;;;;;;;1.42;0.65;;;17.90;57.40;;;;;;4987742;28;20487;-76
2022/05/28 11:44:33;;;;;;;;;;;18.10;57.10;;;;;;4954594;28;20083;-76
2022/05/28 11:47:05;;;;;;;1.90;0.70;;;18.10;56.80;;;;;;4965524;28;20288;-75
2022/05/28 11:52:40;;;;;;;1.23;0.50;;;17.90;56.30;;;;;;4976267;28;20102;-77
2022/05/28 11:55:13;;;;;;;2.17;0.50;;;17.80;56.70;;;;;;4958143;28;20197;-77
2022/05/28 11:57:45;;;;;;;1.02;0.50;;;17.70;56.70;;;;;;4957891;28;20501;-75
2022/05/28 12:00:14;;;;;;;0.95;0.50;;;17.70;56.80;;;;;;4974439;28;20062;-75
2022/05/28 12:02:47;;;;;;;1.15;0.50;;;17.90;56.50;;;;;;4975059;28;20505;-74
2022/05/28 12:05:23;;;;;;;0.30;0.30;;;18.20;55.90;;;;;;4974120;28;20043;-74
2022/05/28 12:08:02;;;;;;;0.82;0.40;;;18.20;55.60;;;;;;4986758;28;20133;-75
2022/05/28 12:10:38;;;;;;;0.52;0.35;;;18.10;55.60;;;;;;4997094;28;20116;-75
2022/05/28 12:13:05;;;;;;;0.80;0.30;;;17.90;55.80;;;;;;4979664;28;20041;-75
2022/05/28 12:15:34;;;;;;;0.38;0.30;;;17.80;56.20;;;;;;4995812;28;20523;-75
2022/05/28 12:18:28;;;;;;;1.35;0.57;;;17.90;56.20;;;;;;4978138;28;20122;-75
2022/05/28 12:20:59;;;;;;;1.35;0.50;;;17.90;55.80;;;;;;4994558;28;20551;-75
2022/05/28 12:23:32;;;;;;;1.88;0.73;;;18.00;55.80;;;;;;4995915;28;20030;-75
2022/05/28 12:26:01;;;;;;;1.13;0.55;;;17.90;55.70;;;;;;4996628;28;20058;-75
2022/05/28 12:28:44;;;;;;;0.90;0.60;;;17.70;55.90;;;;;;4999162;28;20120;-76
2022/05/28 12:31:25;;;;;;;1.20;0.60;;;17.50;56.00;;;;;;4984930;28;20433;-75
2022/05/28 12:33:57;;;;;;;0.93;0.52;;;17.40;56.20;;;;;;4999688;28;20046;-75
2022/05/28 12:36:45;;;;;;;1.20;0.50;;;17.30;56.30;;;;;;4996875;28;20031;-75
2022/05/28 12:39:37;;;;;;;0.80;0.47;;;17.30;56.70;;;;;;4983131;28;20062;-74
2022/05/28 12:42:04;;;;;;;1.05;0.50;;;17.30;56.50;;;;;;4982093;28;20101;-76
2022/05/28 12:44:30;;;;;;;0.40;0.35;;;17.40;56.20;;;;;;4996872;28;20022;-76
2022/05/28 12:46:59;;;;;;;1.50;0.65;;;17.60;55.80;;;;;;4994722;28;20029;-75
2022/05/28 12:49:33;;;;;;;0.95;0.40;;;17.70;55.20;;;;;;4998074;28;20030;-75
2022/05/28 12:52:24;;;;;;;0.85;0.43;;;17.60;54.90;;;;;;4978583;28;20052;-76
2022/05/28 12:55:19;;;;;;;2.45;0.50;;;17.70;54.90;;;;;;4983235;28;20069;-75
2022/05/28 12:57:59;;;;;;;1.40;0.60;;;17.60;54.70;;;;;;4985571;28;20030;-77
2022/05/28 13:00:29;;;;;;;1.00;0.43;;;17.60;54.90;;;;;;4994883;28;20057;-74
2022/05/28 13:02:55;;;;;;;1.55;0.65;;;17.70;54.80;;;;;;4976272;28;20034;-75
2022/05/28 13:05:39;;;;;;;1.35;0.65;;;17.70;54.50;;;;;;4976928;28;20485;-74
2022/05/28 13:08:10;;;;;;;0.65;0.40;;;17.80;54.20;;;;;;4994770;28;20033;-74
2022/05/28 13:10:43;;;;;;;2.50;0.50;;;17.80;54.10;;;;;;4994981;28;20137;-76
2022/05/28 13:13:41;;;;;;;1.95;0.55;;;17.90;54.00;;;;;;4962623;28;20069;-77
2022/05/28 13:16:27;;;;;;;4.43;0.70;;;17.90;53.90;;;;;;4994357;28;20125;-75